Time;durP1;ratioP1;P1;durP2;ratioP2;P2;SDS_P1;SDS_P2;PMS_P1;PMS_P2;Temp;Humidity;BMP_temperature;BMP_pressure;BME280_temperature;BME280_humidity;BME280_pressure;Samples;Min_cycle;Max_cycle;Signal;HPM_P1;HPM_P2
2023/03/10 00:01:35;;;;;;;;;;;1.00;99.90;;;;;;5022738;28;19925;-75
2023/03/10 00:04:01;;;;;;;;;;;1.10;99.90;;;;;;5026095;28;19925;-74
2023/03/10 00:06:28;;;;;;;;;;;1.10;99.90;;;;;;5023251;28;20032;-75
2023/03/10 00:08:53;;;;;;;;;;;1.10;99.90;;;;;;5023439;28;19921;-74
2023/03/10 00:11:19;;;;;;;;;;;1.10;99.90;;;;;;5022801;28;19940;-73
2023/03/10 00:13:45;;;;;;;;;;;1.00;99.90;;;;;;5019823;28;19960;-73
2023/03/10 00:16:20;;;;;;;;;;;1.10;99.90;;;;;;5025232;28;19948;-74
2023/03/10 00:18:47;;;;;;;;;;;1.10;99.90;;;;;;5021868;28;20425;-75
2023/03/10 00:21:14;;;;;;;;;;;1.10;99.90;;;;;;5019866;28;19921;-74
2023/03/10 00:23:39;;;;;;;;;;;1.00;99.90;;;;;;5020346;28;20003;-74
2023/03/10 00:26:05;;;;;;;;;;;1.10;99.90;;;;;;5017547;28;20383;-74
2023/03/10 00:28:30;;;;;;;;;;;1.10;99.90;;;;;;5018659;28;19947;-75
2023/03/10 00:30:57;;;;;;;;;;;1.10;99.90;;;;;;5017955;28;19971;-75
2023/03/10 00:33:22;;;;;;;;;;;1.00;99.90;;;;;;5012042;28;19921;-75
2023/03/10 00:35:48;;;;;;;;;;;1.00;99.90;;;;;;5016117;28;19925;-75
2023/03/10 00:38:14;;;;;;;;;;;1.00;99.90;;;;;;5021331;28;19917;-74
2023/03/10 00:40:39;;;;;;;;;;;1.00;99.90;;;;;;5020166;28;19964;-75
2023/03/10 00:43:05;;;;;;;;;;;1.00;99.90;;;;;;5019178;28;19921;-74
2023/03/10 00:45:30;;;;;;;;;;;1.20;99.90;;;;;;5020440;28;19929;-74
2023/03/10 00:47:56;;;;;;;;;;;1.00;99.90;;;;;;5021497;28;19921;-74
2023/03/10 00:50:21;;;;;;;;;;;1.10;99.90;;;;;;5020047;28;20596;-74
2023/03/10 00:52:50;;;;;;;;;;;1.00;99.90;;;;;;5021055;28;20003;-75
2023/03/10 00:55:15;;;;;;;;;;;1.10;99.90;;;;;;5025322;28;19959;-75
2023/03/10 00:57:41;;;;;;;;;;;1.00;99.90;;;;;;5028019;28;20358;-74
2023/03/10 01:00:07;;;;;;;;;;;1.10;99.90;;;;;;5030864;28;19921;-73
2023/03/10 01:02:32;;;;;;;;;;;1.10;99.90;;;;;;5028312;28;20616;-74
2023/03/10 01:04:58;;;;;;;;;;;1.00;99.90;;;;;;5025536;28;19929;-75
2023/03/10 01:07:23;;;;;;;;;;;1.20;99.90;;;;;;5029625;28;20355;-75
2023/03/10 01:09:49;;;;;;;;;;;1.10;99.90;;;;;;5028983;28;19974;-76
2023/03/10 01:12:14;;;;;;;;;;;1.00;99.90;;;;;;5028372;28;19936;-75
2023/03/10 01:14:40;;;;;;;;;;;1.10;99.90;;;;;;5026479;28;20525;-75
2023/03/10 01:17:05;;;;;;;;;;;1.20;99.90;;;;;;5026053;28;20426;-75
2023/03/10 01:19:31;;;;;;;;;;;1.10;99.90;;;;;;5024158;28;19975;-75
2023/03/10 01:21:56;;;;;;;;;;;1.10;99.90;;;;;;5021258;28;19992;-74
2023/03/10 01:24:22;;;;;;;;;;;1.20;99.90;;;;;;5023253;28;20005;-74
2023/03/10 01:26:48;;;;;;;;;;;1.20;99.90;;;;;;5023603;28;19921;-75
2023/03/10 01:29:13;;;;;;;;;;;1.20;99.90;;;;;;5024660;28;19967;-74
2023/03/10 01:31:40;;;;;;;;;;;1.30;99.90;;;;;;5019975;28;19970;-74
2023/03/10 01:34:06;;;;;;;;;;;1.10;99.90;;;;;;5020920;28;20375;-75
2023/03/10 01:36:32;;;;;;;;;;;1.10;99.90;;;;;;5020416;28;20005;-74
2023/03/10 01:38:57;;;;;;;;;;;1.20;99.90;;;;;;5007026;28;19921;-74
2023/03/10 01:41:23;;;;;;;;;;;1.10;99.90;;;;;;5022297;28;19975;-74
2023/03/10 01:43:50;;;;;;;;;;;1.30;99.90;;;;;;5023361;28;19921;-76
2023/03/10 01:46:34;;;;;;;;;;;1.20;99.90;;;;;;5020307;28;20392;-74
2023/03/10 01:49:03;;;;;;;;;;;1.30;99.90;;;;;;5005384;28;19921;-74
2023/03/10 01:51:30;;;;;;;;;;;1.30;99.90;;;;;;5019415;28;19925;-75
2023/03/10 01:53:56;;;;;;;;;;;1.20;99.90;;;;;;5024124;28;19921;-74
2023/03/10 01:56:22;;;;;;;;;;;1.30;99.90;;;;;;5010457;28;20277;-74
2023/03/10 01:58:48;;;;;;;;;;;1.30;99.90;;;;;;5029413;28;19991;-75
2023/03/10 02:01:14;;;;;;;;;;;1.30;99.90;;;;;;5027253;28;19927;-73
2023/03/10 02:03:52;;;;;;;;;;;1.30;99.90;;;;;;5026395;28;19917;-76
2023/03/10 02:06:19;;;;;;;;;;;1.30;99.90;;;;;;5020545;28;19974;-75
2023/03/10 02:08:47;;;;;;;;;;;1.40;99.90;;;;;;5027257;28;19928;-74
2023/03/10 02:11:13;;;;;;;;;;;1.40;99.90;;;;;;5023202;28;19928;-74
2023/03/10 02:13:39;;;;;;;;;;;1.40;99.90;;;;;;5026014;28;19925;-73
2023/03/10 02:16:05;;;;;;;;;;;1.40;99.90;;;;;;5021598;28;19927;-73
2023/03/10 02:18:31;;;;;;;;;;;1.40;99.90;;;;;;5026885;28;19925;-75
2023/03/10 02:21:07;;;;;;;;;;;1.30;99.90;;;;;;5023865;28;19936;-75
2023/03/10 02:23:47;;;;;;;;;;;1.40;99.90;;;;;;5027818;28;19936;-73
2023/03/10 02:26:32;;;;;;;;;;;1.20;99.90;;;;;;5028480;28;19921;-74
2023/03/10 02:28:59;;;;;;;;;;;1.20;99.90;;;;;;5025432;28;19964;-74
2023/03/10 02:31:25;;;;;;;;;;;1.20;99.90;;;;;;5023126;28;19921;-75
2023/03/10 02:33:51;;;;;;;;;;;1.20;99.90;;;;;;5026832;28;20004;-75
2023/03/10 02:36:21;;;;;;;;;;;1.20;99.90;;;;;;5027268;28;20004;-75
2023/03/10 02:38:47;;;;;;;;;;;1.20;99.90;;;;;;5023131;28;19925;-75
2023/03/10 02:41:42;;;;;;;;;;;1.10;99.90;;;;;;5026679;28;19924;-75
2023/03/10 02:44:10;;;;;;;;;;;1.10;99.90;;;;;;5013197;28;19936;-74
2023/03/10 02:46:36;;;;;;;;;;;1.10;99.90;;;;;;5020319;28;19921;-74
2023/03/10 02:49:03;;;;;;;;;;;1.00;99.90;;;;;;5020646;28;19928;-74
2023/03/10 02:51:30;;;;;;;;;;;1.20;99.90;;;;;;5026564;28;20019;-74
2023/03/10 02:53:56;;;;;;;;;;;1.00;99.90;;;;;;5021109;28;19986;-75
2023/03/10 02:56:21;;;;;;;;;;;1.10;99.90;;;;;;5024848;28;20342;-75
2023/03/10 02:58:47;;;;;;;;;;;1.10;99.90;;;;;;5024900;28;19960;-74
2023/03/10 03:01:13;;;;;;;;;;;1.10;99.90;;;;;;5021302;28;20257;-74
2023/03/10 03:03:38;;;;;;;;;;;1.20;99.90;;;;;;5019379;28;19921;-74
2023/03/10 03:06:04;;;;;;;;;;;1.20;99.90;;;;;;5020671;28;19929;-73
2023/03/10 03:08:32;;;;;;;;;;;1.20;99.90;;;;;;5018385;28;20351;-73
2023/03/10 03:10:57;;;;;;;;;;;1.00;99.90;;;;;;5020880;28;19998;-74
2023/03/10 03:13:23;;;;;;;;;;;1.00;99.90;;;;;;5021915;28;19925;-74
2023/03/10 03:15:49;;;;;;;;;;;1.00;99.90;;;;;;5024348;28;19933;-73
2023/03/10 03:18:14;;;;;;;;;;;1.10;99.90;;;;;;5027391;28;19921;-73
2023/03/10 03:20:40;;;;;;;;;;;1.10;99.90;;;;;;5027797;28;19921;-74
2023/03/10 03:23:06;;;;;;;;;;;1.10;99.90;;;;;;5025080;28;20706;-74
2023/03/10 03:25:33;;;;;;;;;;;1.10;99.90;;;;;;5029148;28;20360;-74
2023/03/10 03:27:59;;;;;;;;;;;1.00;99.90;;;;;;5024955;28;19928;-74
2023/03/10 03:30:26;;;;;;;;;;;1.10;99.90;;;;;;5026131;28;19932;-74
2023/03/10 03:32:52;;;;;;;;;;;0.90;99.90;;;;;;5025909;28;19974;-74
2023/03/10 03:35:25;;;;;;;;;;;1.10;99.90;;;;;;5022410;28;20035;-75
2023/03/10 03:37:51;;;;;;;;;;;1.10;99.90;;;;;;5028250;28;20270;-74
2023/03/10 03:40:17;;;;;;;;;;;1.00;99.90;;;;;;5017961;28;19928;-75
2023/03/10 03:42:44;;;;;;;;;;;0.90;99.90;;;;;;5020139;28;19921;-74
2023/03/10 03:45:10;;;;;;;;;;;1.00;99.90;;;;;;5025496;28;19921;-74
2023/03/10 03:47:36;;;;;;;;;;;0.90;99.90;;;;;;5027464;28;19921;-73
2023/03/10 03:50:02;;;;;;;;;;;0.80;99.90;;;;;;5022544;28;19930;-74
2023/03/10 03:52:27;;;;;;;;;;;0.90;99.90;;;;;;5012322;28;20376;-74
2023/03/10 03:54:53;;;;;;;;;;;0.90;99.90;;;;;;5023106;28;19928;-73
2023/03/10 03:57:19;;;;;;;;;;;0.80;99.90;;;;;;5028078;28;19924;-74
2023/03/10 03:59:44;;;;;;;;;;;0.90;99.90;;;;;;5024245;28;19921;-74
2023/03/10 04:02:10;;;;;;;;;;;0.80;99.90;;;;;;5024896;28;20019;-74
2023/03/10 04:04:35;;;;;;;;;;;0.80;99.90;;;;;;5026651;28;19917;-74
2023/03/10 04:07:01;;;;;;;;;;;0.80;99.90;;;;;;5027754;28;19921;-74
2023/03/10 04:09:27;;;;;;;;;;;0.90;99.90;;;;;;5018761;28;19963;-74
2023/03/10 04:11:53;;;;;;;;;;;0.90;99.90;;;;;;5023784;28;20010;-74
2023/03/10 04:14:19;;;;;;;;;;;0.90;99.90;;;;;;5018417;28;20612;-74
2023/03/10 04:16:44;;;;;;;;;;;0.70;99.90;;;;;;5023667;28;19927;-73
2023/03/10 04:19:10;;;;;;;;;;;0.80;99.90;;;;;;5025243;28;20327;-74
2023/03/10 04:21:35;;;;;;;;;;;0.80;99.90;;;;;;5025898;28;19975;-73
2023/03/10 04:24:01;;;;;;;;;;;0.60;99.90;;;;;;5005077;28;19929;-74
2023/03/10 04:26:27;;;;;;;;;;;0.60;99.90;;;;;;5021189;28;20309;-74
2023/03/10 04:28:53;;;;;;;;;;;0.70;99.90;;;;;;5015285;28;20020;-74
2023/03/10 04:31:19;;;;;;;;;;;0.80;99.90;;;;;;5024976;28;20004;-74
2023/03/10 04:33:44;;;;;;;;;;;0.80;99.90;;;;;;5011043;28;20681;-74
2023/03/10 04:36:10;;;;;;;;;;;0.70;99.90;;;;;;5027776;28;19924;-73
2023/03/10 04:38:36;;;;;;;;;;;0.80;99.90;;;;;;5027692;28;19928;-74
2023/03/10 04:41:03;;;;;;;;;;;0.80;99.90;;;;;;4997835;28;20016;-73
2023/03/10 04:43:30;;;;;;;;;;;0.80;99.90;;;;;;5004182;28;19975;-73
2023/03/10 04:45:56;;;;;;;;;;;0.80;99.90;;;;;;5019765;28;19921;-74
2023/03/10 04:48:22;;;;;;;;;;;0.70;99.90;;;;;;5019946;28;19924;-73
2023/03/10 04:50:57;;;;;;;;;;;0.80;99.90;;;;;;5023117;28;19927;-75
2023/03/10 04:53:23;;;;;;;;;;;0.80;99.90;;;;;;5021469;28;19921;-73
2023/03/10 04:55:50;;;;;;;;;;;0.70;99.90;;;;;;5019046;28;19921;-74
2023/03/10 04:58:20;;;;;;;;;;;0.60;99.90;;;;;;5020755;28;19925;-73
2023/03/10 05:00:45;;;;;;;;;;;0.60;99.90;;;;;;5018999;28;20869;-72
2023/03/10 05:03:11;;;;;;;;;;;0.60;99.90;;;;;;5020309;28;19929;-74
2023/03/10 05:05:37;;;;;;;;;;;0.70;99.90;;;;;;5018967;28;20960;-74
2023/03/10 05:08:03;;;;;;;;;;;0.70;99.90;;;;;;5021212;28;19959;-74
2023/03/10 05:10:28;;;;;;;;;;;0.70;99.90;;;;;;5019684;28;20368;-73
2023/03/10 05:12:54;;;;;;;;;;;0.60;99.90;;;;;;5016763;28;20052;-73
2023/03/10 05:15:19;;;;;;;;;;;0.70;99.90;;;;;;5018876;28;19921;-74
2023/03/10 05:17:45;;;;;;;;;;;0.80;99.90;;;;;;5025028;28;19917;-74
2023/03/10 05:20:10;;;;;;;;;;;0.50;99.90;;;;;;5021182;28;19933;-74
2023/03/10 05:22:36;;;;;;;;;;;0.60;99.90;;;;;;5008671;28;19967;-73
2023/03/10 05:25:02;;;;;;;;;;;0.50;99.90;;;;;;5021781;28;19924;-73
2023/03/10 05:27:28;;;;;;;;;;;0.40;99.90;;;;;;5025256;28;19975;-74
2023/03/10 05:29:53;;;;;;;;;;;0.60;99.90;;;;;;5022506;28;19917;-74
2023/03/10 05:32:19;;;;;;;;;;;0.40;99.90;;;;;;5025947;28;20048;-73
2023/03/10 05:34:45;;;;;;;;;;;0.60;99.90;;;;;;5025831;28;19921;-72
2023/03/10 05:37:11;;;;;;;;;;;0.40;99.90;;;;;;5026248;28;19928;-72
2023/03/10 05:39:36;;;;;;;;;;;0.40;99.90;;;;;;5023401;28;19951;-72
2023/03/10 05:42:02;;;;;;;;;;;0.50;99.90;;;;;;5023732;28;19925;-73
2023/03/10 05:44:27;;;;;;;;;;;0.40;99.90;;;;;;5021823;28;19940;-73
2023/03/10 05:46:53;;;;;;;;;;;0.50;99.90;;;;;;5027813;28;19921;-72
2023/03/10 05:49:19;;;;;;;;;;;0.50;99.90;;;;;;5009972;28;19921;-73
2023/03/10 05:51:45;;;;;;;;;;;0.40;99.90;;;;;;5028149;28;19921;-73
2023/03/10 05:54:10;;;;;;;;;;;0.40;99.90;;;;;;5027049;28;19924;-72
2023/03/10 05:56:36;;;;;;;;;;;0.40;99.90;;;;;;5012097;28;19963;-72
2023/03/10 05:59:02;;;;;;;;;;;0.40;99.90;;;;;;5027973;28;20288;-73
2023/03/10 06:01:27;;;;;;;;;;;0.30;99.90;;;;;;5028731;28;19928;-72
2023/03/10 06:03:53;;;;;;;;;;;0.50;99.90;;;;;;5027810;28;20322;-71
2023/03/10 06:06:19;;;;;;;;;;;0.60;99.90;;;;;;5026818;28;20288;-72
2023/03/10 06:08:44;;;;;;;;;;;0.40;99.90;;;;;;5028969;28;19942;-71
2023/03/10 06:11:10;;;;;;;;;;;0.40;99.90;;;;;;5010366;28;19936;-72
2023/03/10 06:13:35;;;;;;;;;;;0.40;99.90;;;;;;5025678;28;19968;-72
2023/03/10 06:16:02;;;;;;;;;;;0.50;99.90;;;;;;5024760;28;19936;-72
2023/03/10 06:18:28;;;;;;;;;;;0.50;99.90;;;;;;5005484;28;19921;-71
2023/03/10 06:20:54;;;;;;;;;;;0.40;99.90;;;;;;5024926;28;20004;-71
2023/03/10 06:23:20;;;;;;;;;;;0.40;99.90;;;;;;5029109;28;19928;-72
2023/03/10 06:25:54;;;;;;;;;;;0.50;99.90;;;;;;5026686;28;19975;-72
2023/03/10 06:28:20;;;;;;;;;;;0.40;99.90;;;;;;5027875;28;19921;-72
2023/03/10 06:30:52;;;;;;;;;;;0.50;99.90;;;;;;5011122;28;20279;-73
2023/03/10 06:33:17;;;;;;;;;;;0.60;99.90;;;;;;5027573;28;19921;-74
2023/03/10 06:35:43;;;;;;;;;;;0.70;99.90;;;;;;5028351;28;19928;-73
2023/03/10 06:38:08;;;;;;;;;;;0.60;99.90;;;;;;5027151;28;20012;-73
2023/03/10 06:40:34;;;;;;;;;;;0.70;99.90;;;;;;5027709;28;19967;-74
2023/03/10 06:42:59;;;;;;;;;;;0.60;99.90;;;;;;5022601;28;19955;-72
2023/03/10 06:45:25;;;;;;;;;;;0.50;99.90;;;;;;5019121;28;20559;-74
2023/03/10 06:47:50;;;;;;;;;;;0.50;99.90;;;;;;5020382;28;19929;-71
2023/03/10 06:50:16;;;;;;;;;;;0.70;99.90;;;;;;5018302;28;19983;-71
2023/03/10 06:52:42;;;;;;;;;;;0.60;99.90;;;;;;5021948;28;20343;-71
2023/03/10 06:55:08;;;;;;;;;;;0.70;99.90;;;;;;5003676;28;19929;-71
2023/03/10 06:57:33;;;;;;;;;;;0.70;99.90;;;;;;5001913;28;20462;-72
2023/03/10 06:59:59;;;;;;;;;;;0.60;99.90;;;;;;5025593;28;19941;-72
2023/03/10 07:02:24;;;;;;;;;;;0.70;99.90;;;;;;5020697;28;19925;-72
2023/03/10 07:04:50;;;;;;;;;;;0.50;99.90;;;;;;5019463;28;19925;-73
2023/03/10 07:07:15;;;;;;;;;;;0.70;99.90;;;;;;5015842;28;19921;-71
2023/03/10 07:09:41;;;;;;;;;;;0.80;99.90;;;;;;5020972;28;20671;-71
2023/03/10 07:12:07;;;;;;;;;;;0.70;99.90;;;;;;5017991;28;19925;-72
2023/03/10 07:14:32;;;;;;;;;;;0.70;99.90;;;;;;5019950;28;20287;-73
2023/03/10 07:16:58;;;;;;;;;;;0.70;99.90;;;;;;4998867;28;19924;-72
2023/03/10 07:19:23;;;;;;;;;;;0.60;99.90;;;;;;5022118;28;19925;-73
2023/03/10 07:21:49;;;;;;;;;;;0.70;99.90;;;;;;5016057;28;20384;-73
2023/03/10 07:24:15;;;;;;;;;;;0.80;99.90;;;;;;5003933;28;20350;-71
2023/03/10 07:26:41;;;;;;;;;;;0.80;99.90;;;;;;5020547;28;20023;-73
2023/03/10 07:29:06;;;;;;;;;;;0.60;99.90;;;;;;5008123;28;20315;-72
2023/03/10 07:31:33;;;;;;;;;;;0.70;99.90;;;;;;5014747;28;19935;-72
2023/03/10 07:34:00;;;;;;;;;;;0.70;99.90;;;;;;4999366;28;20371;-72
2023/03/10 07:36:26;;;;;;;;;;;0.70;99.90;;;;;;5016068;28;19968;-72
2023/03/10 07:38:52;;;;;;;;;;;0.60;99.90;;;;;;5018508;28;19921;-72
2023/03/10 07:41:18;;;;;;;;;;;0.90;99.90;;;;;;5028287;28;19926;-75
2023/03/10 07:43:44;;;;;;;;;;;0.70;99.90;;;;;;5022027;28;19928;-71
2023/03/10 07:46:11;;;;;;;;;;;0.70;99.90;;;;;;5020329;28;19932;-72
2023/03/10 07:48:37;;;;;;;;;;;0.70;99.90;;;;;;5017271;28;19929;-71
2023/03/10 07:51:03;;;;;;;;;;;0.70;99.90;;;;;;5019077;28;19939;-72
2023/03/10 07:53:29;;;;;;;;;;;0.80;99.90;;;;;;5020220;28;20372;-71
2023/03/10 07:55:54;;;;;;;;;;;0.90;99.90;;;;;;5019029;28;20031;-71
2023/03/10 07:58:20;;;;;;;;;;;0.80;99.90;;;;;;5016814;28;19925;-73
2023/03/10 08:00:52;;;;;;;;;;;0.80;99.90;;;;;;5020142;28;20820;-72
2023/03/10 08:03:17;;;;;;;;;;;0.80;99.90;;;;;;5018498;28;21709;-74
2023/03/10 08:05:43;;;;;;;;;;;0.80;99.90;;;;;;5030109;28;19928;-72
2023/03/10 08:08:08;;;;;;;;;;;0.80;99.90;;;;;;5015424;28;20007;-73
2023/03/10 08:10:34;;;;;;;;;;;0.90;99.90;;;;;;5018469;28;19921;-72
2023/03/10 08:13:00;;;;;;;;;;;0.80;99.90;;;;;;5014598;28;19925;-71
2023/03/10 08:15:25;;;;;;;;;;;0.80;99.90;;;;;;5017888;28;19921;-71
2023/03/10 08:17:51;;;;;;;;;;;0.80;99.90;;;;;;5019179;28;19986;-71
2023/03/10 08:20:17;;;;;;;;;;;1.00;99.90;;;;;;5026208;28;19921;-71
2023/03/10 08:22:43;;;;;;;;;;;1.00;99.90;;;;;;5025293;28;19925;-73
2023/03/10 08:25:08;;;;;;;;;;;0.90;99.90;;;;;;5026176;28;19925;-72
2023/03/10 08:27:36;;;;;;;;;;;1.10;99.90;;;;;;5022737;28;21595;-73
2023/03/10 08:30:01;;;;;;;;;;;1.00;99.90;;;;;;5017484;28;19925;-72
2023/03/10 08:32:27;;;;;;;;;;;0.80;99.90;;;;;;5021327;28;19941;-72
2023/03/10 08:34:53;;;;;;;;;;;0.90;99.90;;;;;;5018404;28;19925;-73
2023/03/10 08:37:19;;;;;;;;;;;0.80;99.90;;;;;;5017991;28;19933;-73
2023/03/10 08:39:45;;;;;;;;;;;0.90;99.90;;;;;;5002602;28;19947;-73
2023/03/10 08:42:11;;;;;;;;;;;0.70;99.90;;;;;;5017257;28;20411;-72
2023/03/10 08:44:37;;;;;;;;;;;0.90;99.90;;;;;;5024496;28;20032;-73
2023/03/10 08:47:03;;;;;;;;;;;0.70;99.90;;;;;;5022855;28;20028;-72
2023/03/10 08:49:28;;;;;;;;;;;0.70;99.90;;;;;;5023732;28;19932;-74
2023/03/10 08:51:54;;;;;;;;;;;0.90;99.90;;;;;;5024274;28;20376;-72
2023/03/10 08:54:20;;;;;;;;;;;0.70;99.90;;;;;;5026980;28;19969;-74
2023/03/10 08:56:46;;;;;;;;;;;0.80;99.90;;;;;;5027172;28;19971;-72
2023/03/10 08:59:11;;;;;;;;;;;0.80;99.90;;;;;;5026457;28;20380;-74
2023/03/10 09:01:37;;;;;;;;;;;0.90;99.90;;;;;;5023861;28;20019;-73
2023/03/10 09:04:04;;;;;;;;;;;0.80;99.90;;;;;;5020081;28;19964;-73
2023/03/10 09:06:30;;;;;;;;;;;0.90;99.90;;;;;;4998522;28;19928;-74
2023/03/10 09:08:55;;;;;;;;;;;0.90;99.90;;;;;;5023542;28;19929;-73
2023/03/10 09:11:23;;;;;;;;;;;0.90;99.90;;;;;;5021031;28;19941;-73
2023/03/10 09:13:49;;;;;;;;;;;0.90;99.90;;;;;;5020560;28;20055;-74
2023/03/10 09:16:14;;;;;;;;;;;0.90;99.90;;;;;;5019671;28;20009;-74
2023/03/10 09:18:40;;;;;;;;;;;0.90;99.90;;;;;;5018743;28;19972;-74
2023/03/10 09:21:06;;;;;;;;;;;0.80;99.90;;;;;;5021970;28;19979;-74
2023/03/10 09:23:32;;;;;;;;;;;1.10;99.90;;;;;;5006237;28;20427;-75
2023/03/10 09:25:57;;;;;;;;;;;1.00;99.90;;;;;;5020748;28;20027;-74
2023/03/10 09:28:23;;;;;;;;;;;1.00;99.90;;;;;;5020187;28;19979;-75
2023/03/10 09:30:49;;;;;;;;;;;0.80;99.90;;;;;;5019141;28;19920;-75
2023/03/10 09:33:17;;;;;;;;;;;1.00;99.90;;;;;;5022446;28;20369;-74
2023/03/10 09:35:42;;;;;;;;;;;1.00;99.90;;;;;;5021895;28;19950;-76
2023/03/10 09:38:08;;;;;;;;;;;1.00;99.90;;;;;;5020987;28;19925;-74
2023/03/10 09:40:33;;;;;;;;;;;1.00;99.90;;;;;;5023921;28;19933;-73
2023/03/10 09:43:00;;;;;;;;;;;0.90;99.90;;;;;;5021248;28;20035;-73
2023/03/10 09:45:42;;;;;;;;;;;0.90;99.90;;;;;;5025128;28;19987;-74
2023/03/10 09:48:26;;;;;;;;;;;0.90;99.90;;;;;;5028439;28;20443;-76
2023/03/10 09:50:55;;;;;;;;;;;0.90;99.90;;;;;;5028007;28;20371;-74
2023/03/10 09:53:39;;;;;;;;;;;0.90;99.90;;;;;;5030068;28;20027;-75
2023/03/10 09:56:13;;;;;;;;;;;0.80;99.90;;;;;;5030543;28;19925;-74
2023/03/10 09:58:40;;;;;;;;;;;1.00;99.90;;;;;;5026201;28;19925;-74
2023/03/10 10:01:14;;;;;;;;;;;0.90;99.90;;;;;;5018752;28;20024;-75
2023/03/10 10:03:48;;;;;;;;;;;0.80;99.90;;;;;;5025900;28;20060;-72
2023/03/10 10:06:16;;;;;;;;;;;0.90;99.90;;;;;;5011590;28;20001;-72
2023/03/10 10:08:47;;;;;;;;;;;0.90;99.90;;;;;;5021553;28;19948;-73
2023/03/10 10:11:14;;;;;;;;;;;1.00;99.90;;;;;;5030564;28;19976;-72
2023/03/10 10:13:40;;;;;;;;;;;1.00;99.90;;;;;;5026447;28;19929;-74
2023/03/10 10:16:26;;;;;;;;;;;1.00;99.90;;;;;;5017128;28;20068;-73
2023/03/10 10:19:02;;;;;;;;;;;1.00;99.90;;;;;;5019452;28;19951;-73
2023/03/10 10:21:34;;;;;;;;;;;1.10;99.90;;;;;;5023739;28;20016;-73
2023/03/10 10:24:00;;;;;;;;;;;1.00;99.90;;;;;;5023297;28;19925;-73
2023/03/10 10:26:26;;;;;;;;;;;0.80;99.90;;;;;;5020934;28;19936;-74
2023/03/10 10:28:59;;;;;;;;;;;0.80;99.90;;;;;;5021334;28;19925;-74
2023/03/10 10:31:28;;;;;;;;;;;0.80;99.90;;;;;;5017063;28;20363;-74
2023/03/10 10:33:54;;;;;;;;;;;1.00;99.90;;;;;;5025791;28;19933;-74
2023/03/10 10:36:21;;;;;;;;;;;0.90;99.90;;;;;;5024584;28;19929;-74
2023/03/10 10:38:48;;;;;;;;;;;0.90;99.90;;;;;;5018916;28;19925;-75
2023/03/10 10:41:20;;;;;;;;;;;0.90;99.90;;;;;;5024904;28;20299;-76
2023/03/10 10:43:46;;;;;;;;;;;0.80;99.90;;;;;;5027522;28;19925;-77
2023/03/10 10:46:13;;;;;;;;;;;0.80;99.90;;;;;;5013283;28;20392;-76
2023/03/10 10:48:40;;;;;;;;;;;0.90;99.90;;;;;;5003916;28;19983;-75
2023/03/10 10:51:18;;;;;;;;;;;0.90;99.90;;;;;;5025565;28;19921;-76
2023/03/10 10:53:44;;;;;;;;;;;1.00;99.90;;;;;;5018200;28;19940;-76
2023/03/10 10:56:12;;;;;;;;;;;0.90;99.90;;;;;;5021597;28;19921;-76
2023/03/10 10:58:38;;;;;;;;;;;0.90;99.90;;;;;;5026705;28;20396;-75
2023/03/10 11:01:06;;;;;;;;;;;1.10;99.90;;;;;;5015207;28;19956;-75
2023/03/10 11:03:32;;;;;;;;;;;1.10;99.90;;;;;;5022646;28;20269;-75
2023/03/10 11:05:59;;;;;;;;;;;0.90;99.90;;;;;;5022949;28;19932;-75
2023/03/10 11:08:25;;;;;;;;;;;1.10;99.90;;;;;;5020917;28;20321;-76
2023/03/10 11:10:54;;;;;;;;;;;0.90;99.90;;;;;;5025002;28;19929;-76
2023/03/10 11:13:38;;;;;;;;;;;0.90;99.90;;;;;;5022063;28;19925;-76
2023/03/10 11:16:15;;;;;;;;;;;1.10;99.90;;;;;;5024763;28;19929;-76
2023/03/10 11:18:46;;;;;;;;;;;1.00;99.90;;;;;;5025619;28;19925;-75
2023/03/10 11:21:13;;;;;;;;;;;1.00;99.90;;;;;;5027309;28;19925;-74
2023/03/10 11:23:53;;;;;;;;;;;1.10;99.90;;;;;;5017161;28;19925;-75
2023/03/10 11:26:25;;;;;;;;;;;1.00;99.90;;;;;;5021439;28;19933;-75
2023/03/10 11:29:10;;;;;;;;;;;1.20;99.90;;;;;;5024018;28;19929;-76
2023/03/10 11:32:10;;;;;;;;;;;1.10;99.90;;;;;;5024789;28;20368;-74
2023/03/10 11:34:40;;;;;;;;;;;1.00;99.90;;;;;;4948269;29;19926;-74
2023/03/10 11:37:13;;;;;;;;;;;1.00;99.90;;;;;;5012989;28;19960;-74
2023/03/10 11:39:42;;;;;;;;;;;0.90;99.90;;;;;;5025171;28;20407;-76
2023/03/10 11:42:08;;;;;;;;;;;1.10;99.90;;;;;;5022708;28;20023;-75
2023/03/10 11:44:33;;;;;;;;;;;1.20;99.90;;;;;;5027091;28;20012;-75
2023/03/10 11:47:08;;;;;;;;;;;1.00;99.90;;;;;;5024787;28;20016;-76
2023/03/10 11:49:39;;;;;;;;;;;1.10;99.90;;;;;;5028447;28;19925;-75
2023/03/10 11:52:19;;;;;;;;;;;1.20;99.90;;;;;;5025741;28;19929;-75
2023/03/10 11:54:52;;;;;;;;;;;1.20;99.90;;;;;;5027586;28;19925;-77
2023/03/10 11:57:18;;;;;;;;;;;1.10;99.90;;;;;;5027314;28;20015;-77
2023/03/10 11:59:55;;;;;;;;;;;1.10;99.90;;;;;;5025485;28;19925;-79
2023/03/10 12:02:20;;;;;;;;;;;1.20;99.90;;;;;;5027138;28;20285;-80
2023/03/10 12:04:56;;;;;;;;;;;1.10;99.90;;;;;;5008857;28;20530;-76
2023/03/10 12:07:34;;;;;;;;;;;1.10;99.90;;;;;;5024698;28;19976;-77
2023/03/10 12:10:02;;;;;;;;;;;1.20;99.90;;;;;;5009669;28;19967;-77
2023/03/10 12:12:33;;;;;;;;;;;1.20;99.90;;;;;;5007863;28;20012;-78
2023/03/10 12:14:59;;;;;;;;;;;1.10;99.90;;;;;;5007498;28;20013;-77
2023/03/10 12:17:25;;;;;;;;;;;1.20;99.90;;;;;;5026340;28;19932;-77
2023/03/10 12:20:10;;;;;;;;;;;1.10;99.90;;;;;;5028817;28;19929;-76
2023/03/10 12:22:59;;;;;;;;;;;1.30;99.90;;;;;;5003843;28;20327;-77
2023/03/10 12:25:27;;;;;;;;;;;1.20;99.90;;;;;;5013434;28;20412;-76
2023/03/10 12:28:12;;;;;;;;;;;1.20;99.90;;;;;;5027817;28;19932;-76
2023/03/10 12:30:46;;;;;;;;;;;1.20;99.90;;;;;;5027943;28;19967;-77
2023/03/10 12:33:33;;;;;;;;;;;1.40;99.90;;;;;;5027744;28;20268;-78
2023/03/10 12:36:11;;;;;;;;;;;1.20;99.90;;;;;;5025578;28;19925;-79
2023/03/10 12:38:42;;;;;;;;;;;1.40;99.90;;;;;;5013433;28;19929;-78
2023/03/10 12:41:08;;;;;;;;;;;1.20;99.90;;;;;;5025661;28;19929;-80
2023/03/10 12:43:51;;;;;;;;;;;1.30;99.90;;;;;;5017653;28;20438;-79
2023/03/10 12:46:28;;;;;;;;;;;1.30;99.90;;;;;;5027793;28;20579;-78
2023/03/10 12:49:06;;;;;;;;;;;1.40;99.90;;;;;;5026501;28;19930;-77
2023/03/10 12:51:35;;;;;;;;;;;1.40;99.90;;;;;;5023562;28;19933;-77
2023/03/10 12:54:19;;;;;;;;;;;1.20;99.90;;;;;;5023103;28;20303;-79
2023/03/10 12:56:50;;;;;;;;;;;1.30;99.90;;;;;;5026071;28;19968;-77
2023/03/10 12:59:20;;;;;;;;;;;1.40;99.90;;;;;;5021792;28;19921;-77
2023/03/10 13:01:48;;;;;;;;;;;1.50;99.90;;;;;;5000518;28;19933;-78
2023/03/10 13:04:18;;;;;;;;;;;1.30;99.90;;;;;;5007365;28;19925;-77
2023/03/10 13:06:45;;;;;;;;;;;1.40;99.90;;;;;;5006341;28;19940;-77
2023/03/10 13:09:13;;;;;;;;;;;1.40;99.90;;;;;;5023646;28;19926;-77
2023/03/10 13:11:57;;;;;;;;;;;1.40;99.90;;;;;;5021968;28;20351;-78
2023/03/10 13:14:31;;;;;;;;;;;1.50;99.90;;;;;;5020978;28;19925;-78
2023/03/10 13:17:01;;;;;;;;;;;1.40;99.90;;;;;;5024663;28;19933;-78
2023/03/10 13:19:28;;;;;;;;;;;1.50;99.90;;;;;;5030680;28;19926;-77
2023/03/10 13:21:54;;;;;;;;;;;1.40;99.90;;;;;;5030749;28;19925;-78
2023/03/10 13:24:26;;;;;;;;;;;1.50;99.90;;;;;;5028497;28;20494;-78
2023/03/10 13:27:11;;;;;;;;;;;1.60;99.90;;;;;;5029851;28;20352;-78
2023/03/10 13:29:37;;;;;;;;;;;1.50;99.90;;;;;;5030575;28;20488;-78
2023/03/10 13:32:03;;;;;;;;;;;1.40;99.90;;;;;;5026302;28;19929;-78
2023/03/10 13:34:29;;;;;;;;;;;1.40;99.90;;;;;;5030305;28;19980;-78
2023/03/10 13:37:05;;;;;;;;;;;1.20;99.90;;;;;;5030004;28;19921;-77
2023/03/10 13:39:31;;;;;;;;;;;1.30;99.90;;;;;;5031768;28;19936;-78
2023/03/10 13:41:58;;;;;;;;;;;1.40;99.90;;;;;;5027359;28;19921;-79
2023/03/10 13:44:23;;;;;;;;;;;1.30;99.90;;;;;;5010237;28;19933;-77
2023/03/10 13:46:50;;;;;;;;;;;1.10;99.90;;;;;;5022220;28;19932;-77
2023/03/10 13:49:17;;;;;;;;;;;1.20;99.90;;;;;;5012864;28;20296;-77
2023/03/10 13:51:58;;;;;;;;;;;1.20;99.90;;;;;;5013464;28;19933;-77
2023/03/10 13:54:24;;;;;;;;;;;1.10;99.90;;;;;;5027984;28;20614;-77
2023/03/10 13:56:51;;;;;;;;;;;1.10;99.90;;;;;;5031532;28;19925;-78
2023/03/10 13:59:21;;;;;;;;;;;1.00;99.90;;;;;;5027644;28;19932;-77
2023/03/10 14:01:48;;;;;;;;;;;1.00;99.90;;;;;;5027704;28;19979;-77
2023/03/10 14:04:17;;;;;;;;;;;0.90;99.90;;;;;;5025331;28;20276;-77
2023/03/10 14:06:43;;;;;;;;;;;1.10;99.90;;;;;;5025215;28;19967;-78
2023/03/10 14:09:22;;;;;;;;;;;1.10;99.90;;;;;;5029303;28;20007;-79
2023/03/10 14:11:48;;;;;;;;;;;1.20;99.90;;;;;;5026357;28;20002;-78
2023/03/10 14:14:30;;;;;;;;;;;1.10;99.90;;;;;;5029521;28;20411;-80
2023/03/10 14:16:57;;;;;;;;;;;1.10;99.90;;;;;;5026951;28;19925;-78
2023/03/10 14:19:46;;;;;;;;;;;1.20;99.90;;;;;;5019935;28;19925;-78
2023/03/10 14:22:24;;;;;;;;;;;1.20;99.90;;;;;;5023318;28;20064;-78
2023/03/10 14:24:49;;;;;;;;;;;1.10;99.90;;;;;;5007174;28;19933;-78
2023/03/10 14:27:15;;;;;;;;;;;1.10;99.90;;;;;;5025265;28;19925;-76
2023/03/10 14:29:41;;;;;;;;;;;1.10;99.90;;;;;;5018935;28;20008;-76
2023/03/10 14:32:11;;;;;;;;;;;1.00;99.90;;;;;;5019571;28;20066;-76
2023/03/10 14:34:37;;;;;;;;;;;0.90;99.90;;;;;;5017564;28;19928;-76
2023/03/10 14:37:02;;;;;;;;;;;0.90;99.90;;;;;;5018733;28;20265;-76